Hauptseite
METAR-TAF:

METAR-TAF

Flughäfen :

Flughafen Forlì

Forlì, Italien

Breite: 44-12N, Länge: 012-04E, Höhe: 27 m

Beobachtung

Neuester Wetterbericht von vor 22 Minuten, um 11:50 UTC
Windstille
Temperatur 3°C
Luftfeuchtigkeit 81%
Luftdruck 1024 hPa
Sichtweite: 6000 m
Leicht bewölkt in der Höhe von 4000 ft

METAR: LIPK 191150Z 00000KT 6000 FEW040 03/00 Q1024

Zeit: 13:12 (12:12 UTC)


TAF: fehlend

Wetterbeobachtungen und Prognosen von mehr als 4000 Flughäfen (METAR und TAF Bericht).

Die verfügbaren Stationen werden durch gelbe und rote Markierungen auf der Karte dargestellt.

Führen Sie die Maus auf sie, um den Namen der Station zu sehen.

Darauf klicken, um die Beobachtung von Wetterbeobachtungen und Prognosen zu sehen.

Um die Karte zu ändern : klicken Sie auf den grünen Tasten mit einem schwarzen Kreuz Zum Vergrößern, auf den grünen Button mit einem Gedankenstrich zu verkleinern, oder auf die grünen Pfeile für benachbarte Karten.


METAR-TAF: